Time;durP1;ratioP1;P1;durP2;ratioP2;P2;SDS_P1;SDS_P2;PMS_P1;PMS_P2;Temp;Humidity;BMP_temperature;BMP_pressure;BME280_temperature;BME280_humidity;BME280_pressure;Samples;Min_cycle;Max_cycle;Signal;HPM_P1;HPM_P2
2022/09/25 00:01:38;;;;;;;3.15;1.92;;;8.70;99.90;;;;;;5026090;28;20020;-82
2022/09/25 00:04:04;;;;;;;3.35;1.60;;;8.70;99.90;;;;;;5033042;28;20099;-83
2022/09/25 00:06:32;;;;;;;3.40;1.63;;;8.70;99.90;;;;;;5033388;28;20037;-84
2022/09/25 00:08:59;;;;;;;1.77;1.20;;;8.60;99.90;;;;;;5031759;28;20517;-84
2022/09/25 00:11:27;;;;;;;;;;;8.50;99.90;;;;;;5033774;28;20030;-83
2022/09/25 00:13:54;;;;;;;2.10;1.38;;;8.50;99.90;;;;;;5032810;28;19913;-83
2022/09/25 00:16:23;;;;;;;2.35;1.73;;;8.50;99.90;;;;;;5033694;28;20030;-83
2022/09/25 00:21:34;;;;;;;1.77;1.25;;;8.50;99.90;;;;;;5028177;28;20386;-84
2022/09/25 00:24:06;;;;;;;1.77;1.00;;;8.40;99.90;;;;;;5037540;28;20033;-81
2022/09/25 00:26:35;;;;;;;1.40;1.00;;;8.50;99.90;;;;;;5036365;28;20025;-81
2022/09/25 00:29:03;;;;;;;1.73;1.15;;;8.50;99.90;;;;;;5036052;28;20025;-80
2022/09/25 00:31:29;;;;;;;2.45;1.13;;;8.60;99.90;;;;;;5037693;28;20060;-82
2022/09/25 00:34:03;;;;;;;2.08;1.30;;;8.60;99.90;;;;;;5037396;28;20039;-82
2022/09/25 00:36:30;;;;;;;0.85;0.82;;;8.70;99.90;;;;;;5043479;28;20024;-81
2022/09/25 00:38:57;;;;;;;1.30;1.20;;;8.70;99.90;;;;;;5033413;28;20025;-82
2022/09/25 00:41:25;;;;;;;1.15;1.05;;;8.70;99.90;;;;;;5033650;28;20243;-82
2022/09/25 00:43:55;;;;;;;2.47;1.25;;;8.70;99.90;;;;;;5015556;28;20050;-81
2022/09/25 00:46:23;;;;;;;2.05;1.35;;;8.70;99.90;;;;;;5032251;28;20127;-82
2022/09/25 00:48:59;;;;;;;3.30;1.25;;;8.70;99.90;;;;;;5032596;28;20018;-82
2022/09/25 00:51:33;;;;;;;3.03;1.08;;;8.70;99.90;;;;;;5032705;28;20044;-80
2022/09/25 00:54:03;;;;;;;3.13;1.40;;;8.70;99.90;;;;;;5032686;28;20076;-81
2022/09/25 00:56:33;;;;;;;1.98;0.82;;;8.70;99.90;;;;;;5032646;28;20409;-82
2022/09/25 00:58:59;;;;;;;2.58;1.38;;;8.80;99.90;;;;;;5032589;28;20032;-82
2022/09/25 01:01:25;;;;;;;1.95;0.88;;;8.70;99.90;;;;;;5018330;28;20388;-81
2022/09/25 01:03:52;;;;;;;2.97;0.95;;;8.70;99.90;;;;;;5032394;28;20052;-81
2022/09/25 01:06:19;;;;;;;1.00;0.90;;;8.60;99.90;;;;;;5032567;28;20079;-83
2022/09/25 01:08:45;;;;;;;1.67;1.35;;;8.60;99.90;;;;;;5032336;28;20462;-83
2022/09/25 01:11:11;;;;;;;2.63;0.98;;;8.70;99.90;;;;;;5032149;28;20027;-83
2022/09/25 01:13:37;;;;;;;2.60;1.20;;;8.70;99.90;;;;;;5013949;28;20037;-82
2022/09/25 01:16:07;;;;;;;5.20;0.98;;;8.80;99.90;;;;;;5032251;28;20426;-82
2022/09/25 01:19:03;;;;;;;2.45;0.85;;;8.80;99.90;;;;;;5032055;28;20029;-82
2022/09/25 01:21:43;;;;;;;1.73;1.02;;;8.60;99.90;;;;;;5023884;28;20022;-81
2022/09/25 01:24:28;;;;;;;1.92;1.50;;;8.50;99.90;;;;;;5043475;28;20113;-83
2022/09/25 01:27:27;;;;;;;2.38;0.90;;;8.40;99.90;;;;;;5035618;28;20040;-81
2022/09/25 01:30:05;;;;;;;1.70;1.10;;;8.50;99.90;;;;;;5033971;28;20471;-82
2022/09/25 01:32:33;;;;;;;1.83;0.82;;;8.50;99.90;;;;;;5032062;28;20068;-81
2022/09/25 01:35:31;;;;;;;2.25;1.38;;;8.40;99.90;;;;;;5032342;28;20018;-82
2022/09/25 01:38:15;;;;;;;2.28;0.80;;;8.30;99.90;;;;;;4984454;28;20045;-82
2022/09/25 01:40:49;;;;;;;1.48;0.85;;;8.10;99.90;;;;;;5030765;28;20023;-82
2022/09/25 01:43:40;;;;;;;1.50;0.85;;;8.10;99.90;;;;;;5034539;28;20030;-82
2022/09/25 01:46:34;;;;;;;2.45;1.15;;;8.00;99.90;;;;;;5012990;28;20057;-82
2022/09/25 01:49:07;;;;;;;1.55;0.90;;;8.00;99.90;;;;;;5029072;28;20443;-83
2022/09/25 01:51:46;;;;;;;2.90;1.00;;;8.00;99.90;;;;;;5044037;28;20022;-83
2022/09/25 01:54:21;;;;;;;1.33;1.20;;;8.00;99.90;;;;;;5031471;28;20048;-82
2022/09/25 01:57:06;;;;;;;1.30;1.17;;;8.00;99.90;;;;;;5031454;28;20021;-82
2022/09/25 02:00:01;;;;;;;2.50;1.52;;;7.90;99.90;;;;;;5031307;28;20047;-83
2022/09/25 02:02:34;;;;;;;1.83;1.63;;;8.00;99.90;;;;;;5039347;28;20032;-83
2022/09/25 02:05:33;;;;;;;1.45;1.33;;;8.00;99.90;;;;;;5028529;28;20112;-83
2022/09/25 02:08:06;;;;;;;1.63;1.50;;;8.10;99.90;;;;;;5004530;28;20026;-82
2022/09/25 02:10:50;;;;;;;2.53;1.52;;;8.10;99.90;;;;;;5030211;28;20044;-83
2022/09/25 02:13:19;;;;;;;2.08;1.60;;;8.10;99.90;;;;;;5032169;28;20028;-83
2022/09/25 02:15:55;;;;;;;2.03;1.50;;;8.10;99.90;;;;;;5018952;28;20055;-83
2022/09/25 02:21:11;;;;;;;5.43;2.70;;;8.20;99.90;;;;;;5035917;28;20083;-82
2022/09/25 02:23:56;;;;;;;2.47;1.70;;;8.10;99.90;;;;;;5039542;28;20371;-83
2022/09/25 02:26:26;;;;;;;1.73;1.50;;;8.20;99.90;;;;;;5036038;28;20018;-83
2022/09/25 02:28:53;;;;;;;1.70;1.40;;;8.30;99.90;;;;;;5036870;28;20457;-83
2022/09/25 02:31:24;;;;;;;2.22;1.42;;;8.40;99.90;;;;;;5036513;28;20471;-83
2022/09/25 02:33:50;;;;;;;2.00;1.42;;;8.40;99.90;;;;;;5036066;28;20022;-83
2022/09/25 02:36:18;;;;;;;1.48;1.27;;;8.50;99.90;;;;;;5036749;28;20038;-82
2022/09/25 02:38:45;;;;;;;1.55;1.13;;;8.60;99.90;;;;;;5044074;28;20024;-82
2022/09/25 02:41:30;;;;;;;3.30;1.13;;;8.70;99.90;;;;;;5046327;28;20128;-80
2022/09/25 02:44:11;;;;;;;1.02;0.93;;;8.70;99.90;;;;;;5039894;28;20045;-81
2022/09/25 02:47:01;;;;;;;3.33;1.98;;;8.70;99.90;;;;;;5024470;28;20031;-83
2022/09/25 02:49:32;;;;;;;2.20;0.80;;;8.70;99.90;;;;;;5017429;28;20028;-82
2022/09/25 02:52:32;;;;;;;1.20;0.93;;;8.80;99.90;;;;;;5035001;28;20083;-82
2022/09/25 02:55:31;;;;;;;0.95;0.70;;;8.80;99.90;;;;;;5036899;28;20030;-81
2022/09/25 02:58:14;;;;;;;1.85;1.05;;;8.70;99.90;;;;;;5049719;28;20494;-83
2022/09/25 03:00:43;;;;;;;2.17;0.95;;;8.70;99.90;;;;;;5037985;28;20052;-82
2022/09/25 03:03:12;;;;;;;0.75;0.65;;;8.70;99.90;;;;;;5016657;28;20179;-83
2022/09/25 03:05:38;;;;;;;1.38;1.08;;;8.60;99.90;;;;;;5034288;28;20018;-82
2022/09/25 03:10:49;;;;;;;1.63;1.15;;;8.60;99.90;;;;;;5021530;28;20040;-83
2022/09/25 03:13:18;;;;;;;1.35;1.25;;;8.60;99.90;;;;;;5034814;28;20025;-83
2022/09/25 03:15:51;;;;;;;1.48;1.20;;;8.60;99.90;;;;;;5034707;28;20089;-83
2022/09/25 03:18:18;;;;;;;2.28;1.58;;;8.60;99.90;;;;;;5035077;28;20043;-83
2022/09/25 03:20:44;;;;;;;1.92;1.48;;;8.60;99.90;;;;;;5034437;28;20451;-84
2022/09/25 03:23:10;;;;;;;1.80;1.30;;;8.60;99.90;;;;;;5034547;28;20121;-82
2022/09/25 03:25:37;;;;;;;2.95;1.38;;;8.50;99.90;;;;;;5034210;28;20398;-83
2022/09/25 03:28:07;;;;;;;2.43;1.80;;;8.40;99.90;;;;;;5034323;28;20026;-82
2022/09/25 03:30:33;;;;;;;4.65;3.00;;;8.40;99.90;;;;;;5033064;28;20304;-82
2022/09/25 03:32:58;;;;;;;7.10;3.67;;;8.40;99.90;;;;;;5034160;28;20030;-83
2022/09/25 03:35:25;;;;;;;6.00;3.13;;;8.40;99.90;;;;;;5034001;28;20035;-82
2022/09/25 03:37:51;;;;;;;11.10;3.90;;;8.40;99.90;;;;;;5033667;28;20364;-83
2022/09/25 03:40:17;;;;;;;6.88;3.83;;;8.30;99.90;;;;;;5033974;28;20116;-84
2022/09/25 03:42:43;;;;;;;6.63;3.25;;;8.30;99.90;;;;;;5034088;28;20498;-84
2022/09/25 03:45:10;;;;;;;5.32;3.28;;;8.30;99.90;;;;;;5056329;28;20049;-81
2022/09/25 03:47:36;;;;;;;6.63;3.40;;;8.30;99.90;;;;;;5040204;28;20038;-84
2022/09/25 03:50:02;;;;;;;4.32;2.90;;;8.20;99.90;;;;;;5037472;28;20094;-83
2022/09/25 03:52:28;;;;;;;3.88;2.65;;;8.20;99.90;;;;;;5039408;28;20026;-82
2022/09/25 03:54:54;;;;;;;6.30;2.50;;;8.10;99.90;;;;;;5015780;28;20087;-83
2022/09/25 03:57:20;;;;;;;4.78;2.30;;;8.10;99.90;;;;;;5033356;28;20097;-83
2022/09/25 03:59:45;;;;;;;3.78;2.10;;;8.10;99.90;;;;;;5033573;28;20057;-82
2022/09/25 04:02:12;;;;;;;5.25;2.40;;;8.10;99.90;;;;;;5020248;28;20024;-82
2022/09/25 04:04:38;;;;;;;3.85;2.20;;;8.20;99.90;;;;;;5037219;28;20029;-81
2022/09/25 04:07:05;;;;;;;6.93;2.40;;;8.20;99.90;;;;;;5037307;28;20098;-84
2022/09/25 04:09:31;;;;;;;3.45;1.95;;;8.20;99.90;;;;;;5038639;28;20107;-82
2022/09/25 04:11:56;;;;;;;2.30;1.50;;;8.20;99.90;;;;;;5029157;28;20048;-83
2022/09/25 04:14:22;;;;;;;3.90;1.90;;;8.20;99.90;;;;;;5033097;28;20021;-82
2022/09/25 04:16:49;;;;;;;2.42;1.20;;;8.10;99.90;;;;;;5015213;28;20434;-82
2022/09/25 04:19:15;;;;;;;1.77;1.05;;;8.10;99.90;;;;;;5032871;28;20394;-81
2022/09/25 04:21:41;;;;;;;1.15;0.77;;;8.20;99.90;;;;;;5033241;28;20657;-83
2022/09/25 04:26:52;;;;;;;1.05;0.60;;;8.10;99.90;;;;;;5032843;28;20456;-83
2022/09/25 04:29:20;;;;;;;1.75;0.70;;;8.10;99.90;;;;;;5033955;28;20363;-83
2022/09/25 04:33:44;;;;;;;1.58;0.70;;;8.10;99.90;;;;;;5043578;28;20057;-83
2022/09/25 04:34:34;;;;;;;0.40;0.40;;;8.10;99.90;;;;;;5036143;28;20431;-83
2022/09/25 04:37:00;;;;;;;0.63;0.40;;;8.00;99.90;;;;;;5032769;28;20063;-82
2022/09/25 04:39:26;;;;;;;1.55;1.00;;;8.00;99.90;;;;;;5037711;28;20101;-83
2022/09/25 04:41:52;;;;;;;1.67;1.05;;;7.90;99.90;;;;;;5032575;28;20036;-83
2022/09/25 04:44:18;;;;;;;0.70;0.70;;;7.90;99.90;;;;;;5032693;28;20050;-82
2022/09/25 04:46:43;;;;;;;0.30;0.30;;;7.90;99.90;;;;;;5033561;28;20021;-83
2022/09/25 04:49:09;;;;;;;1.13;0.80;;;7.80;99.90;;;;;;5033032;28;20045;-82
2022/09/25 04:51:35;;;;;;;0.40;0.40;;;7.80;99.90;;;;;;5033366;28;20090;-83
2022/09/25 04:54:01;;;;;;;1.92;0.90;;;7.80;99.90;;;;;;5015039;28;20021;-84
2022/09/25 04:56:27;;;;;;;1.30;0.50;;;7.80;99.90;;;;;;5032652;28;20115;-82
2022/09/25 04:58:52;;;;;;;0.75;0.60;;;7.80;99.90;;;;;;5033878;28;20029;-82
2022/09/25 05:01:19;;;;;;;0.47;0.40;;;7.90;99.90;;;;;;5036820;28;20095;-82
2022/09/25 05:03:49;;;;;;;1.07;0.47;;;7.90;99.90;;;;;;5035735;28;20079;-82
2022/09/25 05:06:15;;;;;;;2.25;0.75;;;8.00;99.90;;;;;;5016819;28;20407;-82
2022/09/25 05:08:41;;;;;;;4.97;2.40;;;7.90;99.90;;;;;;5030032;28;20026;-84
2022/09/25 05:11:07;;;;;;;2.53;1.52;;;7.80;99.90;;;;;;5006312;28;20049;-83
2022/09/25 05:13:33;;;;;;;7.00;2.38;;;7.70;99.90;;;;;;5033439;28;20038;-83
2022/09/25 05:15:58;;;;;;;6.05;3.58;;;7.70;99.90;;;;;;5034075;28;20092;-81
2022/09/25 05:18:24;;;;;;;3.45;1.67;;;7.60;99.90;;;;;;5034369;28;20026;-83
2022/09/25 05:20:52;;;;;;;2.90;1.48;;;7.50;99.90;;;;;;5028334;28;20034;-83
2022/09/25 05:23:19;;;;;;;2.90;1.58;;;7.50;99.90;;;;;;5024967;28;20033;-84
2022/09/25 05:25:59;;;;;;;4.65;1.80;;;7.40;99.90;;;;;;5030218;28;20029;-85
2022/09/25 05:28:25;;;;;;;4.00;2.50;;;7.40;99.90;;;;;;5022778;28;20038;-84
2022/09/25 05:30:51;;;;;;;3.70;2.42;;;7.50;99.90;;;;;;5030114;28;20087;-84
2022/09/25 05:33:17;;;;;;;2.42;1.70;;;7.50;99.90;;;;;;5032933;28;20022;-83
2022/09/25 05:35:43;;;;;;;3.67;1.85;;;7.50;99.90;;;;;;5031848;28;20013;-83
2022/09/25 05:38:09;;;;;;;1.95;1.60;;;7.50;99.90;;;;;;5014986;28;20483;-83
2022/09/25 05:40:38;;;;;;;1.75;1.55;;;7.60;99.90;;;;;;5033778;28;20049;-85
2022/09/25 05:43:07;;;;;;;2.20;1.60;;;7.50;99.90;;;;;;5031870;28;20045;-84
2022/09/25 05:45:34;;;;;;;5.07;3.80;;;7.50;99.90;;;;;;5035937;28;20123;-84
2022/09/25 05:48:05;;;;;;;3.55;2.42;;;7.30;99.90;;;;;;5033384;28;20014;-84
2022/09/25 05:50:32;;;;;;;3.33;1.85;;;7.30;99.90;;;;;;5033255;28;20076;-85
2022/09/25 05:52:59;;;;;;;2.00;1.17;;;7.30;99.90;;;;;;5037706;28;20029;-84
2022/09/25 05:55:25;;;;;;;2.20;1.63;;;7.30;99.90;;;;;;5052082;28;20036;-81
2022/09/25 05:57:51;;;;;;;3.67;2.10;;;7.30;99.90;;;;;;5040469;28;20065;-82
2022/09/25 06:00:17;;;;;;;2.15;1.33;;;7.40;99.90;;;;;;5036672;28;20502;-84
2022/09/25 06:02:43;;;;;;;4.47;2.30;;;7.50;99.90;;;;;;5036487;28;20041;-82
2022/09/25 06:05:09;;;;;;;1.50;1.25;;;7.50;99.90;;;;;;5034609;28;20022;-83
2022/09/25 06:07:35;;;;;;;2.08;1.50;;;7.50;99.90;;;;;;5038905;28;20018;-81
2022/09/25 06:10:01;;;;;;;3.05;1.70;;;7.50;99.90;;;;;;5021617;28;20029;-80
2022/09/25 06:12:30;;;;;;;1.70;1.40;;;7.60;99.90;;;;;;5035580;28;20474;-81
2022/09/25 06:14:57;;;;;;;5.20;2.20;;;7.70;99.90;;;;;;5037490;28;20029;-81
2022/09/25 06:17:22;;;;;;;2.92;1.75;;;7.80;99.90;;;;;;5038314;28;20080;-83
2022/09/25 06:19:48;;;;;;;2.65;1.60;;;7.80;99.90;;;;;;5037329;28;20479;-83
2022/09/25 06:22:14;;;;;;;2.15;1.30;;;7.90;99.90;;;;;;5006989;28;20036;-82
2022/09/25 06:24:40;;;;;;;1.95;1.60;;;7.70;99.90;;;;;;5014822;28;20037;-83
2022/09/25 06:27:07;;;;;;;3.17;1.27;;;7.60;99.90;;;;;;5029170;28;20087;-82
2022/09/25 06:29:33;;;;;;;2.60;2.33;;;7.50;99.90;;;;;;5042334;28;20112;-83
2022/09/25 06:31:58;;;;;;;4.45;2.50;;;7.40;99.90;;;;;;5039002;28;20483;-83
2022/09/25 06:34:26;;;;;;;3.15;2.65;;;7.50;99.90;;;;;;5039336;28;20021;-83
2022/09/25 06:36:52;;;;;;;6.18;2.47;;;7.50;99.90;;;;;;5017085;28;20042;-84
2022/09/25 06:39:17;;;;;;;3.13;2.13;;;7.60;99.90;;;;;;5046291;28;20059;-82
2022/09/25 06:41:43;;;;;;;3.97;3.22;;;7.70;99.90;;;;;;5042398;28;20049;-82
2022/09/25 06:44:09;;;;;;;3.38;2.40;;;7.70;99.90;;;;;;5039593;28;20092;-83
2022/09/25 06:46:35;;;;;;;3.63;2.40;;;7.80;99.90;;;;;;5039395;28;20037;-83
2022/09/25 06:49:01;;;;;;;3.53;2.05;;;7.80;99.90;;;;;;5039108;28;20079;-82
2022/09/25 06:51:31;;;;;;;4.03;2.55;;;7.80;99.90;;;;;;5036743;28;20033;-82
2022/09/25 06:53:58;;;;;;;6.20;3.10;;;7.90;99.90;;;;;;5020793;28;20021;-82
2022/09/25 06:56:24;;;;;;;1.88;1.70;;;7.80;99.90;;;;;;5011105;28;20021;-83
2022/09/25 06:58:50;;;;;;;9.60;5.70;;;7.60;99.90;;;;;;5036021;28;20033;-82
2022/09/25 07:01:16;;;;;;;3.03;2.30;;;7.50;99.90;;;;;;5019293;28;20481;-82
2022/09/25 07:03:44;;;;;;;4.25;2.38;;;7.40;99.90;;;;;;5034128;28;20606;-82
2022/09/25 07:06:22;;;;;;;4.32;2.38;;;7.40;99.90;;;;;;5036130;28;20037;-82
2022/09/25 07:08:48;;;;;;;;;;;7.40;99.90;;;;;;5033609;28;20057;-83
2022/09/25 07:11:17;;;;;;;5.13;2.85;;;7.50;99.90;;;;;;5030178;28;19905;-82
2022/09/25 07:13:43;;;;;;;2.95;1.45;;;7.60;99.90;;;;;;5041078;28;20029;-82
2022/09/25 07:16:15;;;;;;;3.40;1.37;;;7.70;99.90;;;;;;5038749;28;20033;-81
2022/09/25 07:18:45;;;;;;;3.13;2.08;;;7.70;99.90;;;;;;5037290;28;20013;-82
2022/09/25 07:21:16;;;;;;;2.05;1.33;;;7.80;99.90;;;;;;5038321;28;20025;-82
2022/09/25 07:23:43;;;;;;;2.15;1.45;;;7.90;99.90;;;;;;5034252;28;20034;-83
2022/09/25 07:26:12;;;;;;;3.22;1.60;;;7.90;99.90;;;;;;5034950;28;20317;-84
2022/09/25 07:28:40;;;;;;;1.50;1.40;;;7.90;99.90;;;;;;5038411;28;20045;-83
2022/09/25 07:31:18;;;;;;;;;;;7.80;99.90;;;;;;5017347;28;20033;-84
2022/09/25 07:33:45;;;;;;;4.10;1.65;;;7.90;99.90;;;;;;5036636;28;19911;-84
2022/09/25 07:36:11;;;;;;;2.78;1.27;;;8.00;99.90;;;;;;5038399;28;20040;-85
2022/09/25 07:38:38;;;;;;;3.33;1.77;;;8.00;99.90;;;;;;5048009;28;20021;-84
2022/09/25 07:41:05;;;;;;;3.30;1.58;;;8.10;99.90;;;;;;5049512;28;20005;-85
2022/09/25 07:43:34;;;;;;;3.50;1.70;;;8.10;99.90;;;;;;5042768;28;20519;-85
2022/09/25 07:46:00;;;;;;;1.65;1.10;;;8.30;99.90;;;;;;5015344;28;20263;-83
2022/09/25 07:48:29;;;;;;;4.50;1.58;;;8.50;99.90;;;;;;5037272;28;20063;-85
2022/09/25 07:50:59;;;;;;;2.10;1.50;;;8.60;99.90;;;;;;5021719;28;20095;-81
2022/09/25 07:53:24;;;;;;;4.00;1.70;;;8.70;99.90;;;;;;5038106;28;20021;-84
2022/09/25 07:55:50;;;;;;;4.68;1.48;;;8.90;99.90;;;;;;5038298;28;20037;-82
2022/09/25 07:58:18;;;;;;;1.80;1.35;;;8.90;99.90;;;;;;5018923;28;20025;-83
2022/09/25 08:00:44;;;;;;;2.58;2.00;;;8.80;99.90;;;;;;5019616;28;20037;-83
2022/09/25 08:03:13;;;;;;;3.60;2.13;;;8.50;99.90;;;;;;5016195;28;20522;-85
2022/09/25 08:05:39;;;;;;;2.38;1.90;;;8.50;99.90;;;;;;5012196;28;20057;-85
2022/09/25 08:08:05;;;;;;;2.00;1.40;;;8.50;99.90;;;;;;5019227;28;20021;-86
2022/09/25 08:10:31;;;;;;;4.68;1.38;;;8.40;99.90;;;;;;5027615;28;20040;-83
2022/09/25 08:12:57;;;;;;;1.85;1.10;;;8.40;99.90;;;;;;5033658;28;20364;-83
2022/09/25 08:15:24;;;;;;;2.08;1.40;;;8.40;99.90;;;;;;5036262;28;20025;-85
2022/09/25 08:17:50;;;;;;;4.53;2.13;;;8.40;99.90;;;;;;5035294;28;20029;-86
2022/09/25 08:20:16;;;;;;;3.63;1.80;;;8.40;99.90;;;;;;5018954;28;20129;-85
2022/09/25 08:22:42;;;;;;;3.45;2.08;;;8.30;99.90;;;;;;5017210;28;20546;-83
2022/09/25 08:25:08;;;;;;;3.60;1.92;;;8.20;99.90;;;;;;5029682;28;20117;-84
2022/09/25 08:27:39;;;;;;;3.05;2.42;;;8.10;99.90;;;;;;5035191;28;20096;-83
2022/09/25 08:30:14;;;;;;;14.30;7.22;;;8.10;99.90;;;;;;5034046;28;20119;-85
2022/09/25 08:32:40;;;;;;;14.68;6.82;;;8.10;99.90;;;;;;5018681;28;20030;-83
2022/09/25 08:35:06;;;;;;;4.95;3.10;;;8.10;99.90;;;;;;5016907;28;20037;-83
2022/09/25 08:37:32;;;;;;;6.53;3.58;;;8.10;99.90;;;;;;5039566;28;20025;-86
2022/09/25 08:39:59;;;;;;;7.65;4.32;;;8.10;99.90;;;;;;5041522;28;20393;-85
2022/09/25 08:42:31;;;;;;;9.83;6.97;;;8.20;99.90;;;;;;5042638;28;20077;-85
2022/09/25 08:50:42;;;;;;;8.00;5.38;;;8.10;99.90;;;;;;5035450;28;20494;-83
2022/09/25 08:53:23;;;;;;;5.90;3.30;;;8.10;99.90;;;;;;5022298;28;20017;-85
2022/09/25 08:58:41;;;;;;;7.45;3.92;;;8.10;99.90;;;;;;5038298;28;20036;-83
2022/09/25 09:01:12;;;;;;;9.25;5.63;;;8.00;99.90;;;;;;5020129;28;20021;-86
2022/09/25 09:04:16;;;;;;;9.02;5.03;;;8.10;99.90;;;;;;5017431;28;20113;-83
2022/09/25 09:06:42;;;;;;;7.85;4.80;;;8.20;99.90;;;;;;5032786;28;20037;-83
2022/09/25 09:09:16;;;;;;;9.07;6.63;;;8.30;99.90;;;;;;5019620;28;20072;-85
2022/09/25 09:11:51;;;;;;;8.13;4.75;;;8.20;99.90;;;;;;5044552;28;20026;-85
2022/09/25 09:14:21;;;;;;;6.15;3.90;;;8.30;99.90;;;;;;5048268;28;20025;-83
2022/09/25 09:17:17;;;;;;;8.70;6.70;;;8.40;99.90;;;;;;5038215;28;20472;-81
2022/09/25 09:19:52;;;;;;;6.95;4.20;;;8.30;99.90;;;;;;5023099;28;20045;-83
2022/09/25 09:22:29;;;;;;;13.32;7.07;;;8.30;99.90;;;;;;5016555;28;20160;-81
2022/09/25 09:25:14;;;;;;;;;;;8.30;99.90;;;;;;5037907;28;20499;-82
2022/09/25 09:28:11;;;;;;;8.85;4.80;;;8.30;99.90;;;;;;5040379;28;19912;-81
2022/09/25 09:30:53;;;;;;;6.65;5.35;;;8.20;99.90;;;;;;5045498;28;20025;-83
2022/09/25 09:33:42;;;;;;;7.65;5.15;;;8.20;99.90;;;;;;5024168;28;20047;-82
2022/09/25 09:36:30;;;;;;;6.72;4.30;;;8.20;99.90;;;;;;5042284;28;20017;-83
2022/09/25 09:39:15;;;;;;;6.30;2.97;;;8.20;99.90;;;;;;5043643;28;20471;-83
2022/09/25 09:42:09;;;;;;;7.47;4.10;;;8.20;99.90;;;;;;5025266;28;20478;-82
2022/09/25 09:44:57;;;;;;;5.70;3.15;;;8.40;99.90;;;;;;5038412;28;20108;-85
2022/09/25 09:47:45;;;;;;;7.10;2.90;;;8.50;99.90;;;;;;5036713;28;20391;-83
2022/09/25 09:50:13;;;;;;;5.15;2.20;;;8.80;99.90;;;;;;5037523;28;20036;-84
2022/09/25 09:52:45;;;;;;;4.43;1.73;;;8.90;99.90;;;;;;5036608;28;20056;-84
2022/09/25 09:55:29;;;;;;;3.80;2.90;;;8.90;99.90;;;;;;5016061;28;20479;-84
2022/09/25 09:58:04;;;;;;;2.47;2.15;;;9.00;99.90;;;;;;5005333;28;20502;-84
2022/09/25 10:00:31;;;;;;;3.95;2.00;;;9.00;99.90;;;;;;5040436;28;20017;-83
2022/09/25 10:03:36;;;;;;;3.10;2.67;;;9.10;99.90;;;;;;5038214;28;20072;-84
2022/09/25 10:06:08;;;;;;;3.70;2.50;;;9.40;99.90;;;;;;4959065;29;20023;-85
2022/09/25 10:08:34;;;;;;;5.18;3.30;;;9.40;99.90;;;;;;4957325;29;20038;-84
2022/09/25 10:11:08;;;;;;;5.45;2.65;;;9.60;99.90;;;;;;4942925;29;20027;-83
2022/09/25 10:13:39;;;;;;;3.45;2.78;;;9.50;99.90;;;;;;4961014;29;20485;-84
2022/09/25 10:16:13;;;;;;;3.72;2.63;;;9.40;99.90;;;;;;4960894;29;20232;-84
2022/09/25 10:18:40;;;;;;;3.60;2.78;;;9.40;99.90;;;;;;4959535;28;20042;-83
2022/09/25 10:21:28;;;;;;;3.97;2.15;;;9.30;99.90;;;;;;4965913;29;20047;-83
2022/09/25 10:23:57;;;;;;;6.43;2.58;;;9.40;99.90;;;;;;4948770;29;20155;-86
2022/09/25 10:26:30;;;;;;;6.38;3.72;;;9.30;99.60;;;;;;4956807;29;20452;-85
2022/09/25 10:29:01;;;;;;;5.32;3.83;;;9.10;99.90;;;;;;4957871;29;20436;-86
2022/09/25 10:31:35;;;;;;;17.63;9.10;;;9.00;99.90;;;;;;4957024;29;20034;-87
2022/09/25 10:34:05;;;;;;;9.10;4.45;;;9.00;99.90;;;;;;4958069;29;20440;-85
2022/09/25 10:36:36;;;;;;;7.50;4.55;;;9.00;99.90;;;;;;4957285;29;20023;-84
2022/09/25 10:39:04;;;;;;;7.80;5.05;;;9.30;99.90;;;;;;4968730;28;20035;-83
2022/09/25 10:41:42;;;;;;;6.65;4.15;;;9.50;99.90;;;;;;5037603;28;20116;-84
2022/09/25 10:44:24;;;;;;;7.32;4.03;;;9.60;99.90;;;;;;5040487;28;20041;-85
2022/09/25 10:52:43;;;;;;;3.67;2.88;;;9.50;99.80;;;;;;5023215;28;19916;-82
2022/09/25 10:55:18;;;;;;;6.82;3.60;;;9.50;99.70;;;;;;5025394;28;20032;-84
2022/09/25 10:57:46;;;;;;;7.18;3.42;;;9.60;99.80;;;;;;5031807;28;20018;-84
2022/09/25 11:00:24;;;;;;;4.95;3.10;;;9.60;99.80;;;;;;5026266;28;20040;-82
2022/09/25 11:02:58;;;;;;;6.70;3.72;;;9.70;99.70;;;;;;5019995;28;20034;-83
2022/09/25 11:05:32;;;;;;;5.28;3.75;;;9.60;99.60;;;;;;5037588;28;20117;-82
2022/09/25 11:08:01;;;;;;;9.35;4.60;;;9.40;99.70;;;;;;5022192;28;20030;-83
2022/09/25 11:10:52;;;;;;;5.82;4.43;;;9.30;99.90;;;;;;5040039;28;20025;-85
2022/09/25 11:13:23;;;;;;;6.47;4.63;;;9.20;99.90;;;;;;5040703;28;20060;-84
2022/09/25 11:15:57;;;;;;;8.00;4.93;;;9.10;99.90;;;;;;5033035;28;20028;-85
2022/09/25 11:18:44;;;;;;;6.93;4.80;;;9.00;99.90;;;;;;5030427;28;20032;-84
2022/09/25 11:21:21;;;;;;;;;;;8.90;99.90;;;;;;5021828;28;20789;-85
2022/09/25 11:24:19;;;;;;;8.90;5.33;;;8.90;99.90;;;;;;5035309;28;19952;-83
2022/09/25 11:27:24;;;;;;;8.25;5.75;;;8.90;99.90;;;;;;5039979;28;20060;-84
2022/09/25 11:30:00;;;;;;;9.68;5.22;;;8.90;99.90;;;;;;5010896;28;20076;-85
2022/09/25 11:32:33;;;;;;;7.03;5.55;;;8.90;99.90;;;;;;5039959;28;20038;-84
2022/09/25 11:35:36;;;;;;;11.30;6.93;;;8.90;99.90;;;;;;5038539;28;20045;-85
2022/09/25 11:41:28;;;;;;;9.43;6.78;;;8.90;99.90;;;;;;5039688;28;20058;-85
2022/09/25 11:44:12;;;;;;;6.50;5.00;;;9.00;99.90;;;;;;5021264;28;20053;-87
2022/09/25 11:46:49;;;;;;;6.50;4.82;;;9.10;99.90;;;;;;5021891;28;20022;-86
2022/09/25 11:49:25;;;;;;;5.60;4.72;;;9.20;99.90;;;;;;5040252;28;20021;-86
2022/09/25 11:52:04;;;;;;;6.22;5.15;;;9.20;99.90;;;;;;5036508;28;20113;-83
2022/09/25 11:54:45;;;;;;;5.85;5.22;;;9.30;99.90;;;;;;5034103;28;20082;-83
2022/09/25 11:57:43;;;;;;;6.40;4.80;;;9.30;99.90;;;;;;5018167;28;20399;-82
2022/09/25 12:00:52;;;;;;;7.30;5.55;;;9.40;99.90;;;;;;4999207;28;20029;-82
2022/09/25 12:03:50;;;;;;;6.40;4.82;;;9.40;99.90;;;;;;4970670;28;20046;-86
2022/09/25 12:06:57;;;;;;;7.45;5.30;;;9.50;99.90;;;;;;4958080;28;20047;-83
2022/09/25 12:10:03;;;;;;;;;;;9.40;99.90;;;;;;4958147;28;20053;-83
2022/09/25 12:12:41;;;;;;;6.00;4.68;;;9.50;99.90;;;;;;4939438;29;19914;-84
2022/09/25 12:15:08;;;;;;;7.90;5.38;;;9.60;99.90;;;;;;4923296;29;20062;-82
2022/09/25 12:17:51;;;;;;;7.13;5.65;;;9.70;99.90;;;;;;4941386;29;20533;-83
2022/09/25 12:21:03;;;;;;;5.85;5.30;;;10.00;99.80;;;;;;4976689;28;20065;-83
2022/09/25 12:23:29;;;;;;;10.43;5.65;;;10.00;99.80;;;;;;4878694;29;20132;-82
2022/09/25 12:26:11;;;;;;;7.80;5.07;;;10.00;99.70;;;;;;4869083;29;20598;-82
2022/09/25 12:29:02;;;;;;;7.72;5.75;;;10.00;99.90;;;;;;4862737;29;20106;-81
2022/09/25 12:31:38;;;;;;;6.43;5.53;;;10.10;99.90;;;;;;4861840;29;20045;-82
2022/09/25 12:34:25;;;;;;;8.13;5.75;;;10.30;99.90;;;;;;4862773;29;20099;-82
2022/09/25 12:37:26;;;;;;;9.05;6.88;;;10.40;99.40;;;;;;4893326;29;20047;-82
2022/09/25 12:40:01;;;;;;;9.60;7.88;;;10.30;99.20;;;;;;4952678;28;20032;-84
2022/09/25 12:42:43;;;;;;;12.52;8.02;;;10.30;99.30;;;;;;4949151;29;20042;-82
2022/09/25 12:45:15;;;;;;;15.10;8.52;;;10.30;99.30;;;;;;4948698;29;20102;-83
2022/09/25 12:48:11;;;;;;;11.98;9.75;;;10.20;99.40;;;;;;4971082;28;20031;-84
2022/09/25 12:51:10;;;;;;;13.35;8.13;;;10.20;99.50;;;;;;4963919;28;20147;-82
2022/09/25 12:53:48;;;;;;;12.60;9.95;;;10.20;99.60;;;;;;4959823;28;20472;-82
2022/09/25 12:56:25;;;;;;;12.85;10.10;;;10.20;99.60;;;;;;5036935;28;20061;-83
2022/09/25 12:59:14;;;;;;;13.35;9.45;;;10.20;99.50;;;;;;5012407;28;20052;-83
2022/09/25 13:01:56;;;;;;;10.13;9.10;;;10.20;99.60;;;;;;5034867;28;20026;-82
2022/09/25 13:04:42;;;;;;;15.88;10.82;;;10.30;99.60;;;;;;5038513;28;20064;-82
2022/09/25 13:07:28;;;;;;;11.57;10.32;;;10.40;99.20;;;;;;5033446;28;20009;-83
2022/09/25 13:09:53;;;;;;;13.20;10.50;;;10.40;99.00;;;;;;5017941;28;20025;-84
2022/09/25 13:12:32;;;;;;;10.57;9.50;;;10.30;98.80;;;;;;5034197;28;20024;-83
2022/09/25 13:15:05;;;;;;;11.73;9.63;;;10.20;98.60;;;;;;5034760;28;20043;-83
2022/09/25 13:17:31;;;;;;;12.15;10.02;;;10.00;98.60;;;;;;5021719;28;20047;-82
2022/09/25 13:20:25;;;;;;;7.47;6.53;;;9.80;98.90;;;;;;5012033;28;20068;-81
2022/09/25 13:23:01;;;;;;;9.82;8.57;;;9.60;98.70;;;;;;5038188;28;20049;-80
2022/09/25 13:25:27;;;;;;;14.43;8.02;;;9.40;99.10;;;;;;5037785;28;20135;-83
2022/09/25 13:27:56;;;;;;;12.18;8.50;;;9.30;99.60;;;;;;5033172;28;20437;-81
2022/09/25 13:30:31;;;;;;;9.88;6.07;;;9.30;99.90;;;;;;5037621;28;20320;-82
2022/09/25 13:33:02;;;;;;;8.98;6.05;;;9.30;99.90;;;;;;5033315;28;20091;-81
2022/09/25 13:35:30;;;;;;;7.30;5.50;;;9.30;99.90;;;;;;5037016;28;20021;-81
2022/09/25 13:40:41;;;;;;;6.82;5.50;;;9.30;99.70;;;;;;5028674;28;20029;-80
2022/09/25 13:41:12;;;;;;;10.10;4.97;;;9.20;99.40;;;;;;5027207;28;20034;-86
2022/09/25 13:43:38;;;;;;;6.32;4.05;;;9.20;99.80;;;;;;5022964;28;20499;-86
2022/09/25 13:46:20;;;;;;;7.82;4.13;;;9.20;99.80;;;;;;5031246;28;20051;-82
2022/09/25 13:48:46;;;;;;;7.38;5.10;;;9.30;99.90;;;;;;5027734;28;20034;-83
2022/09/25 13:51:21;;;;;;;9.48;4.63;;;9.30;99.90;;;;;;5022800;28;20028;-82
2022/09/25 13:53:58;;;;;;;5.43;4.55;;;9.30;99.90;;;;;;5032882;28;20089;-82
2022/09/25 13:56:48;;;;;;;5.50;4.50;;;9.40;99.90;;;;;;5037872;28;20017;-83
2022/09/25 13:59:14;;;;;;;8.32;4.60;;;9.50;99.90;;;;;;5029129;28;20037;-84